This is the latest recevied weather packets stored in our database for station/object VU3OPZ-13. If no packets are shown the sender has not sent any weather packets the latest 10 day(s).
| Time | Temp. | Humidity | Pressure | Rain* | Wind** | Luminosity | Snow |
|---|---|---|---|---|---|---|---|
| 1788266631 | 25° C | 73% | 1011 hPa | 0 mm | - | - | - |
| 1788264826 | 26.67° C | 63% | 1010 hPa | 0 mm | - | - | - |
| 1788263022 | 26.67° C | 64% | 1010 hPa | 0 mm | - | - | - |
| 1788261217 | 27.78° C | 59% | 1009 hPa | 0 mm | - | - | - |
| 1788259413 | 27.78° C | 58% | 1009 hPa | 0 mm | - | - | - |
| 1788257609 | 28.89° C | 56% | 1009 hPa | 0 mm | - | - | - |
| 1788255804 | 28.33° C | 55% | 1009 hPa | 0 mm | - | - | - |
| 1788254000 | 29.44° C | 53% | 1009 hPa | 0 mm | - | - | - |
| 1788252195 | 29.44° C | 53% | 1009 hPa | 0 mm | - | - | - |
| 1788250390 | 29.44° C | 52% | 1010 hPa | 0 mm | - | - | - |
| 1788248586 | 29.44° C | 52% | 1010 hPa | 0 mm | - | - | - |
| 1788246782 | 28.89° C | 54% | 1011 hPa | 0 mm | - | - | - |
| 1788244977 | 28.89° C | 53% | 1011 hPa | 0 mm | - | - | - |
| 1788243172 | 28.89° C | 55% | 1011 hPa | 0 mm | - | - | - |
| 1788241368 | 28.89° C | 55% | 1011 hPa | 0 mm | - | - | - |
| 1788239580 | 26.67° C | 63% | 1012 hPa | 0 mm | - | - | - |
| 1788237758 | 26.67° C | 62% | 1012 hPa | 0 mm | - | - | - |
| 1788235953 | 25° C | 70% | 1013 hPa | 0 mm | - | - | - |
| 1788234148 | 25° C | 70% | 1013 hPa | 0 mm | - | - | - |
| 1788232343 | 23.89° C | 77% | 1012 hPa | 0 mm | - | - | - |
| 1788230539 | 23.89° C | 77% | 1012 hPa | 0 mm | - | - | - |
| 1788228735 | 22.22° C | 87% | 1012 hPa | 0 mm | - | - | - |
| 1788226930 | 22.22° C | 87% | 1012 hPa | 0 mm | - | - | - |
| 1788225126 | 21.11° C | 95% | 1011 hPa | 0 mm | - | - | - |
| 1788223322 | 21.11° C | 95% | 1011 hPa | 0 mm | - | - | - |
* Rain latest hour (hover to see other rain measurements)
** Current wind speed in m/s (hover to see current wind gust speed)